Time;durP1;ratioP1;P1;durP2;ratioP2;P2;SDS_P1;SDS_P2;PMS_P1;PMS_P2;Temp;Humidity;BMP_temperature;BMP_pressure;BME280_temperature;BME280_humidity;BME280_pressure;Samples;Min_cycle;Max_cycle;Signal;HPM_P1;HPM_P2
2023/04/25 00:00:52;;;;;;;21.73;3.22;;;6.80;99.90;;;;;;4996272;28;20084;-59
2023/04/25 00:03:19;;;;;;;19.98;3.80;;;6.80;99.90;;;;;;5002682;28;20105;-58
2023/04/25 00:05:47;;;;;;;22.15;5.28;;;6.70;99.90;;;;;;4993948;28;20065;-58
2023/04/25 00:08:14;;;;;;;27.08;3.63;;;6.70;99.90;;;;;;4995452;28;20104;-59
2023/04/25 00:10:41;;;;;;;15.10;4.82;;;6.80;99.90;;;;;;5006536;28;20048;-58
2023/04/25 00:13:08;;;;;;;18.00;3.58;;;6.70;99.90;;;;;;4995017;28;20130;-59
2023/04/25 00:18:29;;;;;;;16.52;3.50;;;6.70;99.90;;;;;;4940451;23;20112;-69
2023/04/25 00:20:56;;;;;;;12.70;3.55;;;6.70;99.90;;;;;;5017706;28;20522;-69
2023/04/25 00:23:23;;;;;;;14.85;2.55;;;6.60;99.90;;;;;;5010316;28;20137;-70
2023/04/25 00:25:50;;;;;;;21.67;4.03;;;6.60;99.90;;;;;;5011707;28;20046;-70
2023/04/25 00:28:17;;;;;;;13.00;2.95;;;6.50;99.90;;;;;;4991887;28;20043;-70
2023/04/25 00:30:44;;;;;;;16.65;3.60;;;6.50;99.90;;;;;;4999873;28;20457;-70
2023/04/25 00:33:11;;;;;;;17.55;4.72;;;6.40;99.90;;;;;;5001274;28;20498;-68
2023/04/25 00:35:38;;;;;;;12.57;3.13;;;6.40;99.90;;;;;;4997242;28;20077;-69
2023/04/25 00:38:04;;;;;;;17.23;3.05;;;6.40;99.90;;;;;;5000156;28;20050;-69
2023/04/25 00:40:31;;;;;;;15.70;2.78;;;6.30;99.90;;;;;;5003361;28;20085;-68
2023/04/25 00:42:58;;;;;;;18.67;2.78;;;6.30;99.90;;;;;;4997279;28;20508;-68
2023/04/25 00:45:27;;;;;;;20.60;5.00;;;6.20;99.90;;;;;;5002322;28;20050;-68
2023/04/25 00:47:54;;;;;;;14.93;2.80;;;6.00;99.90;;;;;;4657164;28;10000142;-68
2023/04/25 00:50:21;;;;;;;12.02;2.80;;;6.00;99.90;;;;;;4995099;28;20054;-69
2023/04/25 00:52:48;;;;;;;24.48;3.50;;;6.00;99.90;;;;;;5002149;28;20046;-70
2023/04/25 00:55:15;;;;;;;18.17;2.92;;;5.90;99.90;;;;;;4999214;28;20566;-70
2023/04/25 00:57:42;;;;;;;18.50;4.18;;;5.90;99.90;;;;;;4989859;28;20125;-70
2023/04/25 01:00:10;;;;;;;18.55;2.88;;;5.90;99.90;;;;;;5005078;28;20053;-69
2023/04/25 01:02:37;;;;;;;27.08;5.43;;;5.80;99.90;;;;;;5004498;28;20050;-69
2023/04/25 01:05:04;;;;;;;16.80;3.00;;;5.70;99.90;;;;;;4991148;28;20038;-69
2023/04/25 01:07:31;;;;;;;13.82;3.35;;;5.60;99.90;;;;;;5004610;28;20132;-70
2023/04/25 01:09:58;;;;;;;15.13;3.28;;;5.50;99.90;;;;;;4994109;28;20046;-69
2023/04/25 01:12:24;;;;;;;16.08;3.60;;;5.50;99.90;;;;;;5001059;28;20243;-69
2023/04/25 01:14:52;;;;;;;25.90;4.55;;;5.50;99.90;;;;;;5004181;28;20097;-69
2023/04/25 01:17:19;;;;;;;22.58;2.65;;;5.50;99.90;;;;;;4993704;28;20077;-69
2023/04/25 01:19:48;;;;;;;11.00;3.33;;;5.40;99.90;;;;;;4993938;28;20489;-69
2023/04/25 01:22:14;;;;;;;17.60;2.80;;;5.40;99.90;;;;;;4988883;28;20042;-69
2023/04/25 01:24:41;;;;;;;15.05;2.95;;;5.40;99.90;;;;;;4998577;28;20105;-67
2023/04/25 01:27:08;;;;;;;10.82;3.47;;;5.30;99.90;;;;;;5001638;28;20046;-69
2023/04/25 01:29:35;;;;;;;12.63;3.40;;;5.30;99.90;;;;;;5006045;28;20060;-69
2023/04/25 01:32:02;;;;;;;12.35;2.45;;;5.30;99.90;;;;;;5002597;28;20384;-70
2023/04/25 01:34:29;;;;;;;14.23;2.85;;;5.30;99.90;;;;;;4999510;28;20078;-68
2023/04/25 01:36:56;;;;;;;22.85;3.60;;;5.30;99.90;;;;;;4999231;28;20176;-69
2023/04/25 01:39:23;;;;;;;17.17;4.32;;;5.30;99.90;;;;;;4991230;28;20042;-66
2023/04/25 01:41:49;;;;;;;18.52;3.65;;;5.30;99.90;;;;;;4998355;28;20050;-68
2023/04/25 01:44:16;;;;;;;9.00;3.35;;;5.30;99.90;;;;;;4997903;28;20050;-69
2023/04/25 01:46:43;;;;;;;19.30;3.28;;;5.20;99.90;;;;;;5000625;28;20055;-69
2023/04/25 01:49:10;;;;;;;11.38;2.58;;;5.20;99.90;;;;;;4991451;28;20042;-68
2023/04/25 01:51:37;;;;;;;10.52;2.00;;;5.20;99.90;;;;;;5003434;28;20056;-69
2023/04/25 01:54:03;;;;;;;17.98;2.80;;;5.10;99.90;;;;;;4992675;28;20046;-70
2023/04/25 01:56:31;;;;;;;11.00;2.55;;;5.10;99.90;;;;;;4987726;28;20042;-70
2023/04/25 01:58:58;;;;;;;8.15;2.38;;;5.10;99.90;;;;;;5001377;28;20141;-67
2023/04/25 02:01:25;;;;;;;13.70;2.58;;;5.10;99.90;;;;;;5001749;28;20048;-68
2023/04/25 02:03:51;;;;;;;16.35;3.40;;;5.00;99.90;;;;;;4993513;28;20046;-69
2023/04/25 02:06:19;;;;;;;15.18;3.78;;;5.00;99.90;;;;;;5000235;28;20495;-69
2023/04/25 02:08:45;;;;;;;8.93;2.10;;;5.00;99.90;;;;;;4995392;28;20053;-69
2023/04/25 02:11:12;;;;;;;15.73;2.58;;;5.00;99.90;;;;;;4999211;28;20044;-69
2023/04/25 02:13:39;;;;;;;15.45;3.70;;;5.00;99.90;;;;;;4999204;28;20081;-69
2023/04/25 02:16:06;;;;;;;28.13;5.72;;;4.90;99.90;;;;;;4988987;28;20070;-69
2023/04/25 02:18:33;;;;;;;18.90;4.13;;;4.90;99.90;;;;;;4997137;28;20082;-69
2023/04/25 02:21:01;;;;;;;14.70;2.80;;;4.80;99.90;;;;;;4999062;28;20050;-71
2023/04/25 02:23:28;;;;;;;18.73;4.95;;;4.80;99.90;;;;;;4981547;28;20068;-69
2023/04/25 02:25:55;;;;;;;13.52;2.38;;;4.80;99.90;;;;;;4996333;28;20042;-69
2023/04/25 02:28:23;;;;;;;11.48;4.40;;;4.80;99.90;;;;;;4990701;28;20052;-69
2023/04/25 02:30:50;;;;;;;14.32;2.47;;;4.80;99.90;;;;;;4986403;28;20050;-69
2023/04/25 02:33:17;;;;;;;17.77;3.38;;;4.80;99.90;;;;;;5000362;28;20038;-69
2023/04/25 02:35:44;;;;;;;13.50;2.45;;;4.70;99.90;;;;;;4993790;28;20050;-69
2023/04/25 02:38:10;;;;;;;14.55;2.15;;;4.70;99.90;;;;;;5002890;28;20046;-69
2023/04/25 02:40:37;;;;;;;13.10;2.53;;;4.70;99.90;;;;;;4992264;28;20047;-69
2023/04/25 02:43:04;;;;;;;20.20;3.33;;;4.60;99.90;;;;;;5002958;28;20133;-70
2023/04/25 02:45:31;;;;;;;11.15;2.28;;;4.60;99.90;;;;;;4992016;28;20049;-70
2023/04/25 02:47:57;;;;;;;12.23;2.67;;;4.50;99.90;;;;;;4994481;28;20052;-70
2023/04/25 02:50:24;;;;;;;10.82;2.50;;;4.60;99.90;;;;;;5002949;28;20544;-70
2023/04/25 02:52:51;;;;;;;16.30;3.65;;;4.60;99.90;;;;;;4999245;28;20046;-71
2023/04/25 02:55:18;;;;;;;25.75;2.83;;;4.60;99.90;;;;;;5005368;28;20047;-70
2023/04/25 02:57:44;;;;;;;10.43;2.70;;;4.60;99.90;;;;;;4995667;28;20489;-70
2023/04/25 03:00:14;;;;;;;10.63;3.03;;;4.60;99.90;;;;;;5000110;28;20052;-70
2023/04/25 03:02:40;;;;;;;12.88;2.67;;;4.50;99.90;;;;;;4998891;28;20089;-69
2023/04/25 03:05:07;;;;;;;9.07;3.35;;;4.50;99.90;;;;;;4985676;28;20133;-70
2023/04/25 03:07:34;;;;;;;17.60;2.83;;;4.50;99.90;;;;;;5003111;28;20484;-68
2023/04/25 03:10:01;;;;;;;28.52;3.15;;;4.40;99.90;;;;;;5002829;28;20049;-70
2023/04/25 03:12:27;;;;;;;9.93;2.42;;;4.40;99.90;;;;;;5003125;28;20053;-70
2023/04/25 03:14:54;;;;;;;13.30;2.35;;;4.40;99.90;;;;;;5000403;28;20049;-70
2023/04/25 03:17:21;;;;;;;7.85;2.63;;;4.40;99.90;;;;;;5004689;28;20141;-70
2023/04/25 03:19:48;;;;;;;7.30;2.75;;;4.40;99.90;;;;;;5001830;28;20322;-70
2023/04/25 03:22:14;;;;;;;10.98;2.40;;;4.30;99.90;;;;;;4995631;28;20050;-70
2023/04/25 03:24:41;;;;;;;13.23;2.88;;;4.30;99.90;;;;;;5006296;28;20117;-69
2023/04/25 03:27:08;;;;;;;12.93;2.55;;;4.30;99.90;;;;;;4978234;28;20050;-70
2023/04/25 03:29:35;;;;;;;12.68;2.60;;;4.20;99.90;;;;;;5006101;28;20042;-70
2023/04/25 03:32:02;;;;;;;16.42;3.33;;;4.20;99.90;;;;;;4995056;28;20054;-70
2023/04/25 03:34:28;;;;;;;9.90;2.22;;;4.20;99.90;;;;;;5009357;28;20129;-69
2023/04/25 03:36:55;;;;;;;23.40;3.72;;;4.20;99.90;;;;;;4996712;28;20056;-70
2023/04/25 03:39:22;;;;;;;11.18;2.65;;;4.20;99.90;;;;;;5002938;28;20057;-70
2023/04/25 03:41:48;;;;;;;13.90;2.67;;;4.20;99.90;;;;;;5004494;28;20556;-69
2023/04/25 03:44:15;;;;;;;12.13;2.85;;;4.20;99.90;;;;;;5001609;28;20060;-70
2023/04/25 03:46:42;;;;;;;12.80;3.05;;;4.20;99.90;;;;;;4999484;28;20069;-70
2023/04/25 03:49:09;;;;;;;11.70;2.97;;;4.10;99.90;;;;;;5008526;28;20049;-70
2023/04/25 03:51:36;;;;;;;16.80;3.50;;;4.10;99.90;;;;;;4992694;28;20054;-70
2023/04/25 03:54:02;;;;;;;10.93;2.33;;;4.10;99.90;;;;;;5001059;28;20050;-70
2023/04/25 03:56:29;;;;;;;16.95;3.17;;;4.00;99.90;;;;;;5001362;28;20084;-70
2023/04/25 03:58:56;;;;;;;12.55;3.17;;;4.00;99.90;;;;;;5003425;28;20089;-71
2023/04/25 04:01:23;;;;;;;13.50;3.47;;;4.00;99.90;;;;;;4999420;28;20507;-71
2023/04/25 04:03:50;;;;;;;14.70;2.80;;;4.00;99.90;;;;;;5002120;28;20141;-70
2023/04/25 04:06:17;;;;;;;9.65;2.65;;;4.00;99.90;;;;;;5006615;28;20546;-70
2023/04/25 04:08:44;;;;;;;18.20;2.67;;;4.00;99.90;;;;;;5006453;28;20046;-70
2023/04/25 04:11:11;;;;;;;13.30;3.80;;;4.00;99.90;;;;;;4995746;28;20042;-70
2023/04/25 04:13:38;;;;;;;13.48;4.00;;;4.00;99.90;;;;;;5006579;28;20544;-69
2023/04/25 04:16:05;;;;;;;13.40;2.10;;;4.00;99.90;;;;;;5007553;28;20049;-69
2023/04/25 04:18:33;;;;;;;12.60;2.67;;;4.00;99.90;;;;;;4998258;28;20515;-70
2023/04/25 04:20:59;;;;;;;18.27;3.05;;;3.90;99.90;;;;;;4997399;28;20044;-71
2023/04/25 04:23:27;;;;;;;17.83;3.45;;;4.00;99.90;;;;;;5004744;28;20080;-69
2023/04/25 04:25:55;;;;;;;13.57;2.85;;;3.90;99.90;;;;;;4998865;28;20046;-70
2023/04/25 04:28:21;;;;;;;13.63;2.40;;;4.00;99.90;;;;;;5002163;28;20053;-71
2023/04/25 04:30:50;;;;;;;9.63;1.80;;;3.90;99.90;;;;;;4992815;28;20261;-69
2023/04/25 04:33:19;;;;;;;11.60;2.58;;;3.90;99.90;;;;;;5003012;28;20278;-70
2023/04/25 04:35:46;;;;;;;14.43;3.47;;;3.90;99.90;;;;;;5001844;28;20565;-70
2023/04/25 04:38:15;;;;;;;17.65;2.75;;;3.90;99.90;;;;;;5001712;28;20146;-68
2023/04/25 04:40:46;;;;;;;14.23;3.00;;;3.80;99.90;;;;;;5001511;28;20122;-70
2023/04/25 04:43:13;;;;;;;9.48;3.22;;;3.80;99.90;;;;;;5001372;28;20073;-69
2023/04/25 04:45:40;;;;;;;8.75;2.70;;;3.80;99.90;;;;;;4998806;28;20371;-69
2023/04/25 04:48:06;;;;;;;21.95;4.53;;;3.80;99.90;;;;;;4999859;28;20073;-69
2023/04/25 04:50:33;;;;;;;10.02;2.42;;;3.90;99.90;;;;;;5002485;28;20053;-69
2023/04/25 04:53:00;;;;;;;14.98;3.83;;;3.80;99.90;;;;;;4998028;28;20085;-69
2023/04/25 04:55:27;;;;;;;14.20;3.30;;;3.90;99.90;;;;;;5004858;28;20574;-69
2023/04/25 04:57:54;;;;;;;9.52;2.22;;;3.80;99.90;;;;;;4995539;28;20046;-69
2023/04/25 05:00:21;;;;;;;14.18;2.28;;;3.80;99.90;;;;;;4977680;28;20053;-69
2023/04/25 05:02:48;;;;;;;8.52;2.22;;;3.80;99.90;;;;;;4993086;28;20046;-69
2023/04/25 05:05:15;;;;;;;9.77;1.80;;;3.80;99.90;;;;;;5006396;28;20436;-69
2023/04/25 05:07:42;;;;;;;8.52;3.70;;;3.80;99.90;;;;;;4997958;28;20129;-69
2023/04/25 05:10:08;;;;;;;14.93;2.42;;;3.80;99.90;;;;;;5007683;28;20048;-69
2023/04/25 05:12:35;;;;;;;10.93;2.20;;;3.80;99.90;;;;;;5000075;28;20085;-69
2023/04/25 05:15:03;;;;;;;11.65;2.30;;;3.80;99.90;;;;;;4987128;28;20108;-69
2023/04/25 05:17:29;;;;;;;12.32;2.50;;;3.80;99.90;;;;;;4999975;28;20062;-70
2023/04/25 05:19:56;;;;;;;10.80;3.63;;;3.80;99.90;;;;;;4989096;28;20050;-69
2023/04/25 05:22:23;;;;;;;12.73;2.45;;;3.80;99.90;;;;;;5012821;28;20041;-70
2023/04/25 05:24:51;;;;;;;21.20;2.90;;;3.80;99.90;;;;;;5002161;28;20057;-69
2023/04/25 05:27:21;;;;;;;9.55;2.80;;;3.80;99.90;;;;;;5006018;28;20042;-69
2023/04/25 05:29:48;;;;;;;11.90;2.08;;;3.80;99.90;;;;;;5003816;28;20053;-69
2023/04/25 05:32:14;;;;;;;12.48;3.47;;;3.80;99.90;;;;;;5003853;28;20081;-69
2023/04/25 05:34:41;;;;;;;15.35;2.60;;;3.80;99.90;;;;;;4999103;28;20049;-68
2023/04/25 05:37:08;;;;;;;10.07;3.80;;;3.80;99.90;;;;;;5002642;28;20420;-69
2023/04/25 05:39:35;;;;;;;11.98;2.95;;;3.80;99.90;;;;;;4997191;28;20057;-69
2023/04/25 05:42:03;;;;;;;13.80;2.63;;;3.90;99.90;;;;;;5004810;28;20081;-69
2023/04/25 05:44:31;;;;;;;13.95;3.35;;;3.90;99.90;;;;;;4996786;28;20073;-68
2023/04/25 05:46:57;;;;;;;13.70;2.95;;;3.90;99.90;;;;;;4999719;28;20118;-69
2023/04/25 05:49:24;;;;;;;16.50;2.60;;;4.00;99.90;;;;;;5005273;28;20049;-70
2023/04/25 05:51:51;;;;;;;16.35;2.47;;;4.00;99.90;;;;;;4994259;28;20513;-70
2023/04/25 05:54:18;;;;;;;13.43;2.45;;;3.90;99.90;;;;;;5000813;28;20046;-70
2023/04/25 05:56:44;;;;;;;16.27;2.58;;;3.90;99.90;;;;;;4993349;28;20116;-71
2023/04/25 05:59:11;;;;;;;15.68;3.03;;;3.90;99.90;;;;;;4984322;28;20042;-70
2023/04/25 06:01:38;;;;;;;13.55;2.67;;;4.00;99.90;;;;;;4995067;28;20523;-70
2023/04/25 06:04:05;;;;;;;6.82;1.95;;;4.10;99.90;;;;;;5000056;28;20049;-70
2023/04/25 06:06:32;;;;;;;17.65;3.30;;;4.20;99.90;;;;;;4996835;28;20412;-68
2023/04/25 06:08:58;;;;;;;6.75;2.33;;;4.20;99.90;;;;;;4996927;28;20069;-68
2023/04/25 06:11:25;;;;;;;18.42;2.95;;;4.30;99.90;;;;;;4992329;28;20149;-68
2023/04/25 06:13:52;;;;;;;17.02;3.17;;;4.30;99.90;;;;;;5007460;28;20079;-67
2023/04/25 06:16:19;;;;;;;12.20;3.15;;;4.40;99.90;;;;;;4658501;28;9999996;-67
2023/04/25 06:18:46;;;;;;;13.45;3.80;;;4.40;99.90;;;;;;4993994;28;20594;-68
2023/04/25 06:21:13;;;;;;;10.73;2.22;;;4.40;99.90;;;;;;4987970;28;20057;-68
2023/04/25 06:23:40;;;;;;;12.13;3.42;;;4.60;99.90;;;;;;4992779;28;20134;-68
2023/04/25 06:26:07;;;;;;;11.48;2.53;;;4.50;99.90;;;;;;4997910;28;20540;-68
2023/04/25 06:28:34;;;;;;;15.07;3.50;;;4.60;99.90;;;;;;4995108;28;20044;-68
2023/04/25 06:31:00;;;;;;;14.57;2.55;;;4.60;99.90;;;;;;4999322;28;20495;-68
2023/04/25 06:33:27;;;;;;;8.68;2.38;;;4.60;99.90;;;;;;4990063;28;20050;-69
2023/04/25 06:35:54;;;;;;;9.30;2.30;;;4.70;99.90;;;;;;5000653;28;20064;-67
2023/04/25 06:38:20;;;;;;;21.77;3.78;;;4.70;99.90;;;;;;4990257;28;20042;-69
2023/04/25 06:40:47;;;;;;;15.38;3.38;;;4.70;99.90;;;;;;5004789;28;20041;-70
2023/04/25 06:43:14;;;;;;;11.35;2.67;;;4.70;99.90;;;;;;4993840;28;20120;-69
2023/04/25 06:45:42;;;;;;;10.07;2.22;;;4.80;99.90;;;;;;4998484;28;20081;-70
2023/04/25 06:48:10;;;;;;;15.70;2.92;;;4.80;99.90;;;;;;4993747;28;20125;-69
2023/04/25 06:50:37;;;;;;;20.23;8.50;;;4.80;99.90;;;;;;5000629;28;20053;-66
2023/04/25 06:53:08;;;;;;;11.40;3.17;;;4.80;99.90;;;;;;4995543;28;20042;-65
2023/04/25 06:55:38;;;;;;;14.35;2.42;;;4.90;99.90;;;;;;4998349;28;20146;-69
2023/04/25 06:58:04;;;;;;;12.43;3.13;;;4.90;99.90;;;;;;4995870;28;20078;-69
2023/04/25 07:00:32;;;;;;;17.75;2.50;;;4.90;99.90;;;;;;4997986;28;20136;-69
2023/04/25 07:02:58;;;;;;;14.43;4.40;;;5.00;99.90;;;;;;4996405;28;20054;-69
2023/04/25 07:05:26;;;;;;;16.30;2.67;;;5.10;99.90;;;;;;4980588;28;20045;-69
2023/04/25 07:07:52;;;;;;;14.98;2.28;;;5.10;99.90;;;;;;4980473;28;20047;-69
2023/04/25 07:10:21;;;;;;;19.65;4.47;;;5.10;99.90;;;;;;4996796;28;20052;-69
2023/04/25 07:12:47;;;;;;;13.23;2.72;;;5.20;99.90;;;;;;5000299;28;20137;-69
2023/04/25 07:15:14;;;;;;;10.65;2.83;;;5.20;99.90;;;;;;5000574;28;20053;-69
2023/04/25 07:17:41;;;;;;;19.27;3.03;;;5.30;99.90;;;;;;5002247;28;20129;-69
2023/04/25 07:20:09;;;;;;;11.73;2.45;;;5.40;99.90;;;;;;5000218;28;20053;-68
2023/04/25 07:22:36;;;;;;;9.77;2.15;;;5.50;99.90;;;;;;4975840;28;20049;-67
2023/04/25 07:25:04;;;;;;;10.55;3.88;;;5.50;99.90;;;;;;5004634;28;20168;-68
2023/04/25 07:27:31;;;;;;;7.85;2.75;;;5.50;99.90;;;;;;4993602;28;20085;-69
2023/04/25 07:29:57;;;;;;;13.68;2.90;;;5.50;99.90;;;;;;5004453;28;20524;-70
2023/04/25 07:32:25;;;;;;;15.02;2.80;;;5.60;99.90;;;;;;4977850;28;20054;-69
2023/04/25 07:34:52;;;;;;;31.77;5.03;;;5.60;99.90;;;;;;5003378;28;20072;-68
2023/04/25 07:37:19;;;;;;;5.75;2.83;;;5.60;99.90;;;;;;4997381;28;20050;-69
2023/04/25 07:39:46;;;;;;;7.60;2.53;;;5.60;99.90;;;;;;5000919;28;20054;-68
2023/04/25 07:42:13;;;;;;;10.90;2.80;;;5.70;99.90;;;;;;4998238;28;20050;-68
2023/04/25 07:44:40;;;;;;;17.27;4.28;;;5.70;99.90;;;;;;4974019;28;20049;-68
2023/04/25 07:47:07;;;;;;;9.65;2.70;;;5.70;99.90;;;;;;5000092;28;20050;-68
2023/04/25 07:49:35;;;;;;;18.15;3.03;;;5.80;99.90;;;;;;5002431;28;20061;-67
2023/04/25 07:52:02;;;;;;;5.70;2.17;;;5.90;99.90;;;;;;5002347;28;20485;-68
2023/04/25 07:54:29;;;;;;;14.07;2.88;;;5.90;99.90;;;;;;5001959;28;20123;-68
2023/04/25 07:56:56;;;;;;;16.77;2.20;;;6.00;99.90;;;;;;4993213;28;20128;-68
2023/04/25 07:59:23;;;;;;;11.27;2.60;;;6.00;99.90;;;;;;5009348;28;20053;-68
2023/04/25 08:01:50;;;;;;;9.23;3.47;;;6.10;99.90;;;;;;5008513;28;20571;-68
2023/04/25 08:04:17;;;;;;;15.15;3.20;;;6.10;99.90;;;;;;5000540;28;20056;-68
2023/04/25 08:06:45;;;;;;;11.45;2.85;;;6.20;99.90;;;;;;5006578;28;20112;-68
2023/04/25 08:09:12;;;;;;;11.73;2.20;;;6.20;99.90;;;;;;4995916;28;20092;-68
2023/04/25 08:11:38;;;;;;;20.52;3.50;;;6.20;99.90;;;;;;5006214;28;20472;-68
2023/04/25 08:14:05;;;;;;;12.27;2.97;;;6.30;99.90;;;;;;4995586;28;20081;-68
2023/04/25 08:16:32;;;;;;;9.63;2.30;;;6.40;99.90;;;;;;5006342;28;20100;-67
2023/04/25 08:18:59;;;;;;;10.50;2.40;;;6.40;99.90;;;;;;5003822;28;20058;-68
2023/04/25 08:21:29;;;;;;;13.23;3.33;;;6.50;99.90;;;;;;4995735;28;20050;-68
2023/04/25 08:23:57;;;;;;;12.13;2.70;;;6.50;99.90;;;;;;5002402;28;20042;-69
2023/04/25 08:26:24;;;;;;;9.38;2.95;;;6.60;99.90;;;;;;4997224;28;20050;-69
2023/04/25 08:28:52;;;;;;;18.85;4.82;;;6.60;99.90;;;;;;5001653;28;20464;-69
2023/04/25 08:31:19;;;;;;;17.88;3.03;;;6.70;99.90;;;;;;4998603;28;20120;-69
2023/04/25 08:33:46;;;;;;;9.23;2.35;;;6.80;99.90;;;;;;4999704;28;20056;-69
2023/04/25 08:36:12;;;;;;;19.13;3.88;;;6.90;99.90;;;;;;4997552;28;20513;-68
2023/04/25 08:38:47;;;;;;;7.93;2.20;;;6.90;99.90;;;;;;4999431;28;20050;-69
2023/04/25 08:41:15;;;;;;;17.95;2.10;;;6.90;99.90;;;;;;4997681;28;20047;-69
2023/04/25 08:43:42;;;;;;;13.45;4.43;;;7.00;99.90;;;;;;4989388;28;20123;-69
2023/04/25 08:46:09;;;;;;;9.07;2.05;;;7.10;99.90;;;;;;4994616;28;20395;-69
2023/04/25 08:48:36;;;;;;;4.97;2.00;;;7.10;99.90;;;;;;4988811;28;20108;-69
2023/04/25 08:51:03;;;;;;;17.45;2.83;;;7.20;99.90;;;;;;4985502;28;20592;-68
2023/04/25 08:53:31;;;;;;;19.05;3.67;;;7.20;99.90;;;;;;4974400;28;20057;-71
2023/04/25 08:56:01;;;;;;;11.73;1.60;;;7.20;99.90;;;;;;5005607;28;20157;-70
2023/04/25 08:58:28;;;;;;;7.68;1.55;;;7.30;99.90;;;;;;5005731;28;20081;-69
2023/04/25 09:00:55;;;;;;;9.85;2.05;;;7.40;99.90;;;;;;4991991;28;20496;-69
2023/04/25 09:03:22;;;;;;;10.23;1.95;;;7.50;99.90;;;;;;5004897;28;20054;-67
2023/04/25 09:05:50;;;;;;;11.55;1.90;;;7.50;99.90;;;;;;4994779;28;20078;-67
2023/04/25 09:08:16;;;;;;;8.52;2.47;;;7.50;99.90;;;;;;5005231;28;20052;-68
2023/04/25 09:10:43;;;;;;;10.38;2.20;;;7.60;99.90;;;;;;4995817;28;20325;-68
2023/04/25 09:13:15;;;;;;;8.68;2.08;;;7.80;99.90;;;;;;5004496;28;20092;-68
2023/04/25 09:15:51;;;;;;;14.68;3.65;;;7.90;99.90;;;;;;4996999;28;20064;-67
2023/04/25 09:18:31;;;;;;;10.93;2.15;;;7.90;99.90;;;;;;5005015;28;20108;-68
2023/04/25 09:21:05;;;;;;;9.95;1.80;;;8.00;99.90;;;;;;4996044;28;20624;-69
2023/04/25 09:23:49;;;;;;;10.75;2.80;;;8.10;99.90;;;;;;4993873;28;20039;-69
2023/04/25 09:26:17;;;;;;;11.55;2.00;;;8.10;99.90;;;;;;5003476;28;20042;-68
2023/04/25 09:28:45;;;;;;;8.85;1.77;;;8.20;99.90;;;;;;4994075;28;20046;-70
2023/04/25 09:31:12;;;;;;;13.55;2.20;;;8.20;99.90;;;;;;5001590;28;20133;-68
2023/04/25 09:33:40;;;;;;;9.30;2.10;;;8.30;99.90;;;;;;4996218;28;20046;-71
2023/04/25 09:36:08;;;;;;;9.55;2.10;;;8.40;99.90;;;;;;4982976;28;20076;-69
2023/04/25 09:38:45;;;;;;;7.70;1.73;;;8.50;99.90;;;;;;4998329;28;20454;-71
2023/04/25 09:41:12;;;;;;;17.77;2.33;;;8.80;99.90;;;;;;5000273;28;20149;-68
2023/04/25 09:43:39;;;;;;;12.18;1.90;;;9.00;99.90;;;;;;5001466;28;20050;-71
2023/04/25 09:46:10;;;;;;;10.90;2.47;;;9.40;99.90;;;;;;5000050;28;20054;-69
2023/04/25 09:48:38;;;;;;;12.20;1.75;;;9.50;99.90;;;;;;4655916;28;10000023;-70
2023/04/25 09:51:08;;;;;;;5.25;1.45;;;9.90;99.90;;;;;;4984930;28;20054;-70
2023/04/25 09:53:39;;;;;;;8.43;1.50;;;10.30;99.90;;;;;;4993488;28;20149;-69
2023/04/25 09:56:08;;;;;;;6.25;1.80;;;10.70;99.90;;;;;;4977585;28;20084;-69
2023/04/25 09:58:35;;;;;;;5.05;1.45;;;11.10;99.90;;;;;;5004293;28;20042;-70
2023/04/25 10:01:04;;;;;;;4.90;1.65;;;11.30;99.90;;;;;;5001121;28;20320;-71
2023/04/25 10:03:32;;;;;;;6.30;1.80;;;11.40;99.90;;;;;;4998035;28;20518;-71
2023/04/25 10:06:00;;;;;;;10.50;1.55;;;11.70;99.90;;;;;;5002621;28;20050;-71
2023/04/25 10:08:36;;;;;;;4.70;1.63;;;11.80;99.90;;;;;;4996298;28;20124;-71
2023/04/25 10:11:07;;;;;;;5.63;1.55;;;12.20;99.90;;;;;;5003351;28;20266;-69
2023/04/25 10:13:35;;;;;;;7.15;1.60;;;12.60;99.90;;;;;;4982569;28;20052;-71
2023/04/25 10:16:03;;;;;;;8.77;2.10;;;12.40;99.90;;;;;;4996383;28;20047;-70
2023/04/25 10:18:31;;;;;;;6.28;1.27;;;12.60;99.90;;;;;;5003490;28;20057;-70
2023/04/25 10:21:02;;;;;;;5.82;2.08;;;12.70;99.90;;;;;;5004407;28;20052;-70
2023/04/25 10:23:29;;;;;;;5.95;1.60;;;12.90;99.90;;;;;;4991254;28;20093;-71
2023/04/25 10:25:58;;;;;;;11.43;1.80;;;12.70;99.90;;;;;;4987142;28;20050;-70
2023/04/25 10:28:25;;;;;;;7.68;2.22;;;12.70;99.90;;;;;;4987200;28;20147;-70
2023/04/25 10:31:05;;;;;;;10.48;1.95;;;12.50;99.90;;;;;;4993062;28;20556;-70
2023/04/25 10:33:39;;;;;;;4.88;1.48;;;12.20;99.90;;;;;;4988915;28;20054;-70
2023/04/25 10:36:27;;;;;;;7.88;1.70;;;12.00;99.90;;;;;;4986178;28;20077;-71
2023/04/25 10:38:54;;;;;;;17.35;2.17;;;11.80;99.90;;;;;;4989075;28;20096;-70
2023/04/25 10:41:22;;;;;;;5.00;1.30;;;11.60;99.90;;;;;;4992849;28;20056;-71
2023/04/25 10:43:50;;;;;;;10.73;2.17;;;11.10;99.90;;;;;;4986543;28;20088;-70
2023/04/25 10:46:19;;;;;;;6.20;1.35;;;10.90;99.90;;;;;;4993186;28;20062;-70
2023/04/25 10:48:47;;;;;;;12.82;2.00;;;10.70;99.90;;;;;;5000243;28;20638;-70
2023/04/25 10:51:26;;;;;;;7.18;1.67;;;10.40;99.90;;;;;;4994957;28;20073;-70
2023/04/25 10:53:58;;;;;;;6.63;2.47;;;10.20;99.90;;;;;;4996796;28;20137;-70
2023/04/25 10:56:32;;;;;;;10.70;1.70;;;10.10;99.90;;;;;;4995858;28;20093;-69
2023/04/25 10:59:15;;;;;;;6.53;1.27;;;10.00;97.40;;;;;;4998615;28;20039;-71
2023/04/25 11:01:46;;;;;;;9.65;1.52;;;9.80;96.10;;;;;;4979290;28;20084;-69
2023/04/25 11:04:22;;;;;;;6.97;1.38;;;9.90;99.90;;;;;;4989722;28;20045;-71
2023/04/25 11:06:55;;;;;;;4.57;1.00;;;10.10;99.90;;;;;;4988120;28;20069;-69
2023/04/25 11:09:50;;;;;;;4.20;1.17;;;10.30;99.90;;;;;;5005475;28;20100;-69
2023/04/25 11:12:17;;;;;;;3.92;1.30;;;10.30;95.00;;;;;;4991139;28;20048;-71
2023/04/25 11:14:44;;;;;;;12.00;1.60;;;10.20;99.90;;;;;;5000130;28;20309;-72
2023/04/25 11:17:11;;;;;;;9.10;1.70;;;10.30;99.90;;;;;;4993603;28;20489;-70
2023/04/25 11:19:38;;;;;;;5.00;1.63;;;10.30;99.90;;;;;;5003498;28;20111;-70
2023/04/25 11:22:05;;;;;;;4.78;1.15;;;10.40;99.90;;;;;;5001939;28;20073;-69
2023/04/25 11:24:36;;;;;;;2.78;1.30;;;10.50;99.90;;;;;;4998400;28;20050;-70
2023/04/25 11:27:03;;;;;;;7.25;1.40;;;10.50;99.90;;;;;;4997812;28;20041;-70
2023/04/25 11:29:31;;;;;;;10.00;2.28;;;10.50;99.90;;;;;;4999816;28;20046;-68
2023/04/25 11:31:58;;;;;;;7.90;1.35;;;10.50;99.90;;;;;;4998676;28;20093;-69
2023/04/25 11:34:25;;;;;;;9.13;1.60;;;10.60;99.90;;;;;;4999581;28;20045;-68
2023/04/25 11:36:53;;;;;;;7.47;1.52;;;10.70;99.90;;;;;;4998892;28;20523;-70
2023/04/25 11:39:20;;;;;;;6.15;2.03;;;10.80;99.90;;;;;;4992979;28;20145;-69
2023/04/25 11:41:47;;;;;;;9.65;1.60;;;10.80;99.90;;;;;;4989297;28;20103;-70
2023/04/25 11:44:17;;;;;;;15.38;2.00;;;10.70;99.90;;;;;;5004725;28;20050;-69
2023/04/25 11:46:44;;;;;;;10.45;2.05;;;10.90;99.90;;;;;;4997880;28;20068;-70
2023/04/25 11:49:11;;;;;;;4.47;1.58;;;10.90;97.80;;;;;;5006066;28;20393;-69
2023/04/25 11:51:39;;;;;;;5.03;1.83;;;10.80;98.20;;;;;;4996121;28;20370;-69
2023/04/25 11:54:06;;;;;;;8.07;1.58;;;10.70;99.90;;;;;;4989295;28;20046;-70
2023/04/25 11:56:33;;;;;;;8.70;1.60;;;10.80;99.90;;;;;;4993153;28;20509;-70
2023/04/25 11:59:04;;;;;;;8.57;1.63;;;10.90;99.90;;;;;;5006759;28;20053;-70
2023/04/25 12:01:32;;;;;;;6.47;2.05;;;11.00;99.90;;;;;;4996113;28;20233;-70
2023/04/25 12:04:15;;;;;;;9.43;1.60;;;11.10;99.90;;;;;;4995096;28;20068;-70
2023/04/25 12:06:43;;;;;;;8.18;2.05;;;10.90;97.70;;;;;;5002948;28;20058;-70
2023/04/25 12:09:12;;;;;;;16.30;2.05;;;10.80;99.90;;;;;;5006455;28;20042;-70
2023/04/25 12:11:46;;;;;;;9.55;3.03;;;10.80;99.90;;;;;;4997863;28;20249;-69
2023/04/25 12:14:41;;;;;;;11.57;1.63;;;10.80;99.80;;;;;;4992639;28;20076;-70
2023/04/25 12:17:09;;;;;;;;;;;10.80;96.30;;;;;;5006378;28;20092;-68
2023/04/25 12:19:37;;;;;;;5.07;1.60;;;10.80;95.00;;;;;;4999046;28;19932;-70
2023/04/25 12:22:07;;;;;;;5.00;1.52;;;10.90;99.90;;;;;;5004317;28;20085;-69
2023/04/25 12:24:34;;;;;;;6.07;1.50;;;11.00;99.90;;;;;;4992778;28;20132;-71
2023/04/25 12:27:05;;;;;;;6.25;2.15;;;11.10;97.40;;;;;;5008910;28;20313;-71
2023/04/25 12:29:33;;;;;;;8.32;1.83;;;11.40;99.90;;;;;;4999581;28;20050;-68
2023/04/25 12:32:15;;;;;;;13.30;2.65;;;11.70;99.50;;;;;;5002985;28;20475;-70
2023/04/25 12:34:42;;;;;;;5.88;1.45;;;11.70;97.00;;;;;;4997051;28;20073;-71
2023/04/25 12:37:09;;;;;;;4.47;1.52;;;11.60;97.00;;;;;;5000696;28;20050;-70
2023/04/25 12:39:36;;;;;;;5.45;1.73;;;11.50;94.20;;;;;;4997847;28;20343;-69
2023/04/25 12:42:03;;;;;;;3.88;1.65;;;11.50;96.30;;;;;;4999717;28;20049;-70
2023/04/25 12:44:32;;;;;;;9.75;2.05;;;11.40;94.70;;;;;;4997226;28;20125;-70
2023/04/25 12:46:59;;;;;;;7.70;1.98;;;11.40;96.70;;;;;;4998979;28;20046;-70
2023/04/25 12:49:26;;;;;;;6.13;1.60;;;11.40;94.60;;;;;;4997846;28;20061;-69
2023/04/25 12:51:53;;;;;;;9.57;1.80;;;11.40;96.60;;;;;;4995509;28;20061;-70
2023/04/25 12:54:20;;;;;;;4.82;1.58;;;11.30;94.30;;;;;;4999188;28;20050;-68